Sand Spring Valley, Nevada Weather observations

Data are for 10 minute period ending at time listed.
 Day   Time   Solar   Ave.   Ave.  Ave.  Vector  Max.   Baro.   Total    
  of    of     Rad.   Air    Rel.  Wind   Wind   Wind  Press.  Precip.   
Year   Day            Temp.  Hum.  Speed  Dir.   Gust                    
2016   (PST)  Kw/m2    F      %     mph   deg.    mph    mb.     in.     
-------------------------------------------------------------------------
 268   11:00   0.00   68.2    20    7.3     7    14.7   858.7    0.00 
 268   11:10   0.00   68.1    20    6.3   353    13.4   858.7    0.00 
 268   11:20   0.00   67.9    23    4.2   317    11.7   858.6    0.00 
 268   11:30   0.00   68.2    26    9.1   317    15.3   858.5    0.00 
 268   11:40   0.00   66.7    28    9.0   317    14.4   858.5    0.00 
 268   11:50   0.00   67.0    28    8.2   312    14.1   858.5    0.00 
 268   12:00   0.00   67.6    26    9.7   319    17.5   858.3    0.00 
 268   12:10   0.00   69.5    20    9.0   333    17.4   858.3    0.00 
 268   12:20   0.00   70.1    18    9.0   342    14.8   858.3    0.00 
 268   12:30   0.00   70.5    18    5.5   333    10.2   858.3    0.00 
 268   12:40   0.00   70.8    17    6.6   356    13.2   858.2    0.00 
 268   12:50   0.00   69.7    23    5.4   305    11.1   858.0    0.00 
 268   13:00   0.00   71.5    20    3.6   337     8.7   857.9    0.00 
 268   13:10   0.00   71.6    20    5.6   358    10.7   857.9    0.00 
 268   13:20   0.00   71.0    21    6.6   324    12.0   857.8    0.00 
 268   13:30   0.00   70.8    22    7.8   318    14.1   857.8    0.00 
 268   13:40   0.00   69.7    25   10.4   309    18.0   857.8    0.00 
 268   13:50   0.00   70.3    23    6.6   317    17.2   857.9    0.00 
 268   14:00   0.00   70.1    23    8.1   307    14.2   857.9    0.00 
 268   14:10   0.00   70.3    22    9.2   318    15.2   857.8    0.00 
 268   14:20   0.00   72.0    19    8.2   331    14.9   857.8    0.00 
 268   14:30   0.00   71.8    19   10.3   323    17.6   857.7    0.00 
 268   14:40   0.00   70.3    21   14.4   312    20.9   857.7    0.00 
 268   14:50   0.00   69.6    21   13.7   310    20.7   857.6    0.00 
 268   15:00   0.00   70.4    19   12.5   320    19.4   857.6    0.00 
 268   15:10   0.00   69.5    21   13.4   314    18.9   857.6    0.00 
 268   15:20   0.00   68.4    23   12.9   311    20.9   857.6    0.00 
 268   15:30   0.00   69.3    22   13.5   311    20.8   857.7    0.00 
 268   15:40   0.00   69.0    22   13.9   305    20.3   857.8    0.00 
 268   15:50   0.00   69.3    21   12.6   310    18.6   857.8    0.00 
 268   16:00   0.00   69.9    20   12.5   312    19.8   857.8    0.00 
 268   16:10   0.00   70.6    16   14.2   324    20.3   857.9    0.00 
 268   16:20   0.00   70.8    16   13.0   326    21.0   858.0    0.00 
 268   16:30   0.00   70.3    18   13.6   321    19.9   858.1    0.00 
 268   16:40   0.00   70.7    16   11.4   330    18.5   858.3    0.00 
 268   16:50   0.00   69.2    18   12.5   318    19.6   858.3    0.00 
 268   17:00   0.00   68.7    19   12.8   314    20.0   858.3    0.00 
 268   17:10   0.00   68.3    18   12.4   320    16.9   858.3    0.00 
 268   17:20   0.00   67.9    19   11.7   319    17.1   858.3    0.00 
 268   17:30   0.00   67.1    19    9.1   322    13.0   858.3    0.00 
 268   17:40   0.00   65.8    21    7.5   325    11.8   858.4    0.00 
 268   17:50   0.00   64.7    21    7.5   322    11.5   858.5    0.00 
 268   18:00   0.00   63.6    23    4.8   329     8.5   858.6    0.00 
 268   18:10   0.00   61.6    25    4.8   325     7.1   858.6    0.00 
 268   18:20   0.00   59.9    26    5.3   313     7.5   858.6    0.00 
 268   18:30   0.00   59.2    27    4.5   318     8.0   858.7    0.00 
 268   18:40   0.00   59.3    25    4.9   329     9.1   858.7    0.00 
 268   18:50   0.00   62.5    20    5.3   339     9.9   858.8    0.00 
 268   19:00   0.00   60.6    23    4.7   327     6.6   859.0    0.00 
 268   19:10   0.00   58.4    26    4.0   332     6.1   859.2    0.00 
 268   19:20   0.00   59.1    24    3.8   337     7.3   859.3    0.00 
 268   19:30   0.00   60.1    23    3.0   335     6.6   859.4    0.00 
 268   19:40   0.00   53.4    33    6.2   197     7.4   859.5    0.00 
 268   19:50   0.00   54.6    29    4.0   194     7.3   859.7    0.00 
 268   20:00   0.00   57.5    25    0.8   288     5.8   859.8    0.00 
 268   20:10   0.00   58.5    24    2.1   335     5.3   860.0    0.00 
 268   20:20   0.00   58.3    24    3.5   333     4.9   860.1    0.00 
 268   20:30   0.00   57.3    26    5.3   332     8.5   859.9    0.00 
 268   20:40   0.00   54.6    32    5.5   321     8.3   860.0    0.00 
 268   20:50   0.00   50.9    39    4.4   292     7.4   860.1    0.00 
 268   21:00   0.00   52.7    31    4.3   169    10.0   860.2    0.00 
 268   21:10   0.00   53.9    32    4.2   223     5.8   860.2    0.00 
 268   21:20   0.00   52.3    36    3.9   241     5.2   860.2    0.00 
 268   21:30   0.00   50.3    38    4.0   250     5.3   860.2    0.00 
 268   21:40   0.00   48.8    43    2.9   263     4.3   860.3    0.00 
 268   21:50   0.00   44.6    58    4.0   278     4.7   860.2    0.00 
 268   22:00   0.00   43.8    60    1.9   264     3.7   860.4    0.00 
 268   22:10   0.00   41.5    54    3.0   184     4.2   860.6    0.00 
 268   22:20   0.00   43.1    54    2.0   210     3.6   860.6    0.00 
 268   22:30   0.00   46.5    48    2.5   252     7.5   860.6    0.00 
 268   22:40   0.00   46.3    47    1.8   156     4.7   860.8    0.00 
 268   22:50   0.00   44.6    47    0.2   134     1.1   860.7    0.00 
 268   23:00   0.00   44.2    52    2.1   233     3.6   860.7    0.00 
 268   23:10   0.00   44.1    54    0.2   240     2.0   860.8    0.00 
 268   23:20   0.00   43.3    49    3.2   173     5.2   860.9    0.00 
 268   23:30   0.00   40.1    62    4.7   226     6.4   861.0    0.00 
 268   23:40   0.00   39.0    67    4.8   201     5.8   861.1    0.00 
 268   23:50   0.00   39.4    65    5.4   202     7.7   861.1    0.00 
 269    0:00   0.00   39.7    66    6.4   204     8.7   861.1    0.00 
 269    0:10   0.00   39.5    69    4.9   237     7.8   861.2    0.00 
 269    0:20   0.00   40.6    64    3.9   210     8.1   861.4    0.00 
 269    0:30   0.00   40.7    64    5.3   211     6.6   861.5    0.00 
 269    0:40   0.00   40.0    66    5.8   215     7.0   861.6    0.00 
 269    0:50   0.00   38.8    70    4.8   208     7.2   861.7    0.00 
 269    1:00   0.00   39.7    64    6.0   208     7.5   861.8    0.00 
 269    1:10   0.00   39.6    66    5.2   221     6.9   861.9    0.00 
 269    1:20   0.00   38.5    71    4.8   201     7.2   861.9    0.00 
 269    1:30   0.00   39.0    68    6.0   219     7.5   861.8    0.00 
 269    1:40   0.00   38.5    71    2.8   240     4.9   861.6    0.00 
 269    1:50   0.00   38.0    72    1.9   230     3.1   861.6    0.00 
 269    2:00   0.00   38.3    69    1.4   274     5.3   861.5    0.00 
 269    2:10   0.00   40.4    60    5.2   332     7.8   861.4    0.00 
 269    2:20   0.00   42.1    54    5.2   332     7.8   861.2    0.00 
 269    2:30   0.00   41.2    58    2.5    12     6.1   861.3    0.00 
 269    2:40   0.00   37.7    66    4.1   175     6.8   861.4    0.00 
 269    2:50   0.00   38.2    65    5.6   189     7.4   861.5    0.00 
 269    3:00   0.00   39.0    68    5.4   195     6.7   861.6    0.00 
 269    3:10   0.00   40.6    61    4.8   181     5.5   861.7    0.00 
 269    3:20   0.00   41.7    59    5.4   189     7.1   861.7    0.00 
 269    3:30   0.00   39.0    66    4.6   201     7.5   861.7    0.00 
 269    3:40   0.00   39.1    66    6.4   208     8.8   861.8    0.00 
 269    3:50   0.00   39.1    67    4.5   202     5.8   861.9    0.00 
 269    4:00   0.00   37.7    70    2.4   196     5.3   861.9    0.00 
 269    4:10   0.00   36.8    67    1.4   135     3.0   862.0    0.00 
 269    4:20   0.00   37.7    63    3.9   196     6.0   862.0    0.00 
 269    4:30   0.00   37.1    66    3.0   159     5.1   862.0    0.00 
 269    4:40   0.00   38.1    63    2.1   200     5.4   862.0    0.00 
 269    4:50   0.00   37.8    67    0.3   299     2.7   862.1    0.00 
 269    5:00   0.00   37.3    68    2.1   240     4.2   862.1    0.00 
 269    5:10   0.00   35.6    73    3.5   224     5.4   862.2    0.00 
 269    5:20   0.00   34.3    76    3.7   271     5.5   862.2    0.00 
 269    5:30   0.00   34.4    74    3.2   263     4.7   862.2    0.00 
 269    5:40   0.00   33.7    76    4.0   227     5.6   862.3    0.00 
 269    5:50   0.00   34.2    77    2.8   240     5.4   862.4    0.00 
 269    6:00   0.00   35.4    73    2.9   237     4.1   862.6    0.00 
 269    6:10   0.00   35.4    76    2.0   243     3.0   862.7    0.00 
 269    6:20   0.00   37.5    77    1.3   222     3.0   862.9    0.00 
 269    6:30   0.00   39.8    74    0.6   158     3.2   862.9    0.00 
 269    6:40   0.00   41.9    73    1.1    73     2.9   863.0    0.00 
 269    6:50   0.00   44.1    64    1.7    62     3.1   863.1    0.00 
 269    7:00   0.00   45.9    56    1.9    34     3.9   863.1    0.00 
 269    7:10   0.00   48.1    47    2.2     4     4.4   863.1    0.00 
 269    7:20   0.00   50.3    46    1.4    44     3.7   863.1    0.00 
 269    7:30   0.00   50.6    50    2.0   117     4.7   863.1    0.00 
 269    7:40   0.00   52.3    43    1.6   133     3.1   863.1    0.00 
 269    7:50   0.00   54.7    44    1.2   137     3.1   863.1    0.00 
 269    8:00   0.00   58.3    35    0.1   141     1.2   863.0    0.00 
 269    8:10   0.00   58.9    38    0.1   159     1.8   863.0    0.00 
 269    8:20   0.00   59.3    38    2.9   248     4.0   863.0    0.00 
 269    8:30   0.00   60.9    32    1.5   255     3.0   863.1    0.00 
 269    8:40   0.00   63.7    25    0.2   205     2.6   863.2    0.00 
 269    8:50   0.00   64.8    24    0.6   144     2.4   863.3    0.00 
 269    9:00   0.00   66.9    22    0.3   164     1.2   863.4    0.00 
 269    9:10   0.00   67.1    23    1.6   208     3.0   863.5    0.00 
 269    9:20   0.00   67.7    20    0.5   160     2.8   863.5    0.00 
 269    9:30   0.00   68.2    20    0.4   229     2.6   863.5    0.00 
 269    9:40   0.00   68.3    19    0.5   200     2.9   863.5    0.00 
 269    9:50   0.00   67.4    20    2.9   334     6.8   863.5    0.00 
 269   10:00   0.00   68.0    16    2.9    31     9.9   863.4    0.00 
 269   10:10   0.00   67.8    17    4.5    12    10.4   863.2    0.00 
 269   10:20   0.00   67.8    18    5.2    51    10.5   863.1    0.00 
 269   10:30   0.00   67.3    23    5.2    65    11.5   863.1    0.00 
 269   10:40   0.00   67.4    24    6.1    59    11.3   863.0    0.00 
 269   10:50   0.00   69.3    14    5.0     2    13.1   862.9    0.00 

Return to Sand Spring Valley graphs page.


Western Regional Climate Center,wrcc@dri.edu